Saturday, October 20, 2018, 11:29 AM GMT
Back to Local

CXKT, Kentville , N. S.

Location: , , Canada Lat: 45.067
Local Time: 11:29 AM GMT (11:29 GMT) Lon: -64.483
Time Zone: GMT Elev: 160 ft

Show me the last for .
Show Coded

Time T Td Feel RH Dir Speed Gust Alt SLP Vis Weather Sky Remarks
2018-10-20 11:00 54 47 - 77 200° 6 - - 29.74 0 Peak wind: 19 mph (17 kts) from 210° at 33 min
2018-10-20 10:00 53 46 - 77 210° 9 - - 29.77 0 Peak wind: 19 mph (17 kts) from 210° at 42 min
2018-10-20 09:00 52 46 - 80 190° 6 - - 29.78 0 None
2018-10-20 08:00 50 45 - 84 190° 2 - - 29.82 0 None
2018-10-20 07:00 48 43 46 83 200° 5 - - 29.83 0 None
2018-10-20 06:00 47 41 45 80 170° 5 - - 29.86 0 None
2018-10-20 05:00 44 38 40 81 190° 6 - - 29.92 0 None
2018-10-20 04:00 44 37 42 77 190° 3 - - 29.92 0 None
2018-10-20 03:00 42 35 39 75 180° 5 - - 29.95 0 None
2018-10-20 02:00 41 33 39 73 190° 3 - - 29.98 0 None
2018-10-20 01:00 42 31 38 64 190° 7 - - 30.00 0 None
2018-10-20 00:00 42 31 39 65 180° 5 - - 30.00 0 None
2018-10-19 23:00 40 32 - 71 - Calm - - 30.04 0 None
2018-10-19 22:00 38 31 - 75 170° 1 - - 30.03 0 None
2018-10-19 21:00 41 30 39 63 240° 3 - - 30.03 0 None
2018-10-19 20:00 41 29 36 62 250° 8 - - 30.03 0 None
2018-10-19 19:00 44 28 39 54 260° 8 - - 30.03 0 Peak wind: 19 mph (17 kts) from 250° at 13 min
2018-10-19 18:00 43 25 37 48 270° 9 - - 30.04 0 None
2018-10-19 17:00 40 26 35 56 260° 8 - - 30.06 0 Peak wind: 20 mph (18 kts) from 270° at 10 min
2018-10-19 16:00 39 21 30 48 270° 13 18 - 30.08 0 Peak wind: 20 mph (18 kts) from 260° at 46 min
2018-10-19 15:00 38 21 29 49 280° 12 20 - 30.09 0 Peak wind: 23 mph (20 kts) from 280° at 03 min
2018-10-19 14:00 37 19 25 47 280° 13 23 - 30.10 0 Peak wind: 26 mph (23 kts) from 280° at 37 min
2018-10-19 13:00 36 18 25 47 280° 10 22 - 30.10 0 Peak wind: 21 mph (19 kts) from 280° at 54 min
2018-10-19 12:00 34 21 28 59 270° 6 - - 30.09 0 1-hr Precip Total: 0.01"

Support USWX by starting your Amazon purchase here.